createdAt,value
2022-12-31T00:00:12.969Z,11.61
2022-12-31T00:01:12.867Z,11.62
2022-12-31T00:02:12.900Z,11.62
2022-12-31T00:03:12.895Z,11.56
2022-12-31T00:04:12.789Z,11.57
2022-12-31T00:05:12.638Z,11.56
2022-12-31T00:06:12.580Z,11.56
2022-12-31T00:07:12.530Z,11.59
2022-12-31T00:08:12.470Z,11.59
2022-12-31T00:09:12.404Z,11.54
2022-12-31T00:10:12.347Z,11.61
2022-12-31T00:11:12.301Z,11.59
2022-12-31T00:12:12.231Z,11.67
2022-12-31T00:13:12.175Z,11.62
2022-12-31T00:14:12.116Z,11.65
2022-12-31T00:15:12.063Z,11.61
2022-12-31T00:16:12.670Z,11.62
2022-12-31T00:17:11.960Z,11.61
2022-12-31T00:18:11.889Z,11.57
2022-12-31T00:19:11.831Z,11.65
2022-12-31T00:20:11.774Z,11.62
2022-12-31T00:21:11.721Z,11.67
2022-12-31T00:22:11.685Z,11.74
2022-12-31T00:23:11.593Z,11.65
2022-12-31T00:24:11.544Z,11.56
2022-12-31T00:25:11.489Z,11.61
2022-12-31T00:26:11.433Z,11.62
2022-12-31T00:27:11.361Z,11.62
2022-12-31T00:28:11.315Z,11.67
2022-12-31T00:29:13.053Z,11.65
2022-12-31T00:30:11.198Z,11.67
2022-12-31T00:31:11.208Z,11.64
2022-12-31T00:32:11.079Z,11.70
2022-12-31T00:33:11.029Z,11.70
2022-12-31T00:34:10.979Z,11.64
2022-12-31T00:35:10.911Z,11.65
2022-12-31T00:36:10.851Z,11.67
2022-12-31T00:37:10.790Z,11.64
2022-12-31T00:38:10.732Z,11.64
2022-12-31T00:39:10.674Z,11.71
2022-12-31T00:40:10.618Z,11.71
2022-12-31T00:41:10.567Z,11.71
2022-12-31T00:42:10.505Z,11.65
2022-12-31T00:43:10.441Z,11.71
2022-12-31T00:44:10.389Z,11.70
2022-12-31T00:45:10.491Z,11.68
2022-12-31T00:46:10.320Z,11.70
2022-12-31T00:47:10.221Z,11.64
2022-12-31T00:48:10.157Z,11.68
2022-12-31T00:49:10.101Z,11.72
2022-12-31T00:50:10.051Z,11.65
2022-12-31T00:51:09.987Z,11.70
2022-12-31T00:52:09.923Z,11.68
2022-12-31T00:53:09.870Z,11.71
2022-12-31T00:54:09.821Z,11.64
2022-12-31T00:55:09.761Z,11.68
2022-12-31T00:56:09.691Z,11.70
2022-12-31T00:57:09.638Z,11.65
2022-12-31T00:58:09.598Z,11.67
2022-12-31T00:59:09.534Z,11.71
2022-12-31T01:00:09.469Z,11.68
2022-12-31T01:01:09.568Z,11.72
2022-12-31T01:02:09.628Z,11.72
2022-12-31T01:03:09.324Z,11.65
2022-12-31T01:04:09.258Z,11.65
2022-12-31T01:05:09.175Z,11.71
2022-12-31T01:06:09.132Z,11.68
2022-12-31T01:07:24.035Z,11.68
2022-12-31T01:08:09.005Z,11.78
2022-12-31T01:09:08.972Z,11.78
2022-12-31T01:10:08.893Z,11.75
2022-12-31T01:11:08.826Z,11.78
2022-12-31T01:12:08.787Z,11.70
2022-12-31T01:13:08.719Z,11.67
2022-12-31T01:14:08.692Z,11.72
2022-12-31T01:15:08.601Z,11.77
2022-12-31T01:16:08.571Z,11.82
2022-12-31T01:17:08.507Z,11.78
2022-12-31T01:18:08.425Z,11.74
2022-12-31T01:19:08.368Z,11.70
2022-12-31T01:20:11.026Z,11.72
2022-12-31T01:21:08.256Z,11.71
2022-12-31T01:22:08.199Z,11.78
2022-12-31T01:23:08.136Z,11.75
2022-12-31T01:24:08.091Z,11.67
2022-12-31T01:25:08.023Z,11.72
2022-12-31T01:26:07.963Z,11.75
2022-12-31T01:27:07.909Z,11.67
2022-12-31T01:28:07.855Z,11.82
2022-12-31T01:29:07.789Z,11.83
2022-12-31T01:30:07.738Z,11.77
2022-12-31T01:31:07.789Z,11.82
2022-12-31T01:32:07.618Z,11.78
2022-12-31T01:33:07.570Z,11.80
2022-12-31T01:34:07.512Z,11.83
2022-12-31T01:35:07.455Z,11.80
2022-12-31T01:36:07.395Z,11.83
2022-12-31T01:37:07.331Z,11.78
2022-12-31T01:38:07.274Z,11.78
2022-12-31T01:39:07.225Z,11.85
2022-12-31T01:40:07.161Z,11.77
2022-12-31T01:41:07.102Z,11.77
2022-12-31T01:42:07.041Z,11.67
2022-12-31T01:43:06.985Z,11.80
2022-12-31T01:44:06.929Z,11.78
2022-12-31T01:45:06.873Z,11.75
2022-12-31T01:46:06.862Z,11.75
2022-12-31T01:47:06.753Z,11.75
2022-12-31T01:48:06.698Z,11.72
2022-12-31T01:49:06.642Z,11.77
2022-12-31T01:50:06.587Z,11.77
2022-12-31T01:51:06.522Z,11.78
2022-12-31T01:52:06.482Z,11.80
2022-12-31T01:53:06.419Z,11.75
2022-12-31T01:54:06.374Z,11.74
2022-12-31T01:55:06.322Z,11.80
2022-12-31T01:56:06.242Z,11.82
2022-12-31T01:57:06.183Z,11.82
2022-12-31T01:58:06.122Z,11.77
2022-12-31T01:59:06.062Z,11.83
2022-12-31T02:00:06.014Z,11.78
2022-12-31T02:01:05.957Z,11.77
2022-12-31T02:02:06.032Z,11.80
2022-12-31T02:03:05.866Z,11.82
2022-12-31T02:04:05.779Z,11.83
2022-12-31T02:05:05.719Z,11.78
2022-12-31T02:06:05.661Z,11.78
2022-12-31T02:07:05.609Z,11.82
2022-12-31T02:08:05.553Z,11.87
2022-12-31T02:09:05.493Z,11.87
2022-12-31T02:10:05.436Z,11.83
2022-12-31T02:11:05.375Z,11.78
2022-12-31T02:12:05.327Z,11.78
2022-12-31T02:13:05.258Z,11.80
2022-12-31T02:14:05.204Z,11.82
2022-12-31T02:15:05.144Z,11.82
2022-12-31T02:16:05.129Z,11.82
2022-12-31T02:17:05.034Z,11.77
2022-12-31T02:18:04.990Z,11.75
2022-12-31T02:19:04.910Z,11.85
2022-12-31T02:20:04.867Z,11.78
2022-12-31T02:21:04.834Z,11.83
2022-12-31T02:22:04.748Z,11.82
2022-12-31T02:23:04.679Z,11.85
2022-12-31T02:24:04.631Z,11.83
2022-12-31T02:25:04.565Z,11.72
2022-12-31T02:26:04.516Z,11.83
2022-12-31T02:27:04.456Z,11.85
2022-12-31T02:28:04.431Z,11.77
2022-12-31T02:29:04.337Z,11.80
2022-12-31T02:30:04.283Z,11.80
2022-12-31T02:31:04.277Z,11.78
2022-12-31T02:32:04.219Z,11.77
2022-12-31T02:33:04.124Z,11.85
2022-12-31T02:34:04.110Z,11.75
2022-12-31T02:35:03.992Z,11.87
2022-12-31T02:36:03.953Z,11.82
2022-12-31T02:37:03.899Z,11.80
2022-12-31T02:38:03.825Z,11.85
2022-12-31T02:39:03.764Z,11.85
2022-12-31T02:40:03.702Z,11.78
2022-12-31T02:41:03.664Z,11.75
2022-12-31T02:42:03.591Z,11.82
2022-12-31T02:43:03.532Z,11.85
2022-12-31T02:44:03.477Z,11.78
2022-12-31T02:45:03.416Z,11.83
2022-12-31T02:46:03.451Z,11.72
2022-12-31T02:47:03.302Z,11.77
2022-12-31T02:48:03.244Z,11.77
2022-12-31T02:49:03.185Z,11.77
2022-12-31T02:50:03.129Z,11.75
2022-12-31T02:51:03.074Z,11.83
2022-12-31T02:52:03.009Z,11.77
2022-12-31T02:53:02.973Z,11.75
2022-12-31T02:54:02.897Z,11.74
2022-12-31T02:55:02.877Z,11.83
2022-12-31T02:56:02.785Z,11.85
2022-12-31T02:57:02.734Z,11.82
2022-12-31T02:58:02.672Z,11.75
2022-12-31T02:59:02.615Z,11.82
2022-12-31T03:00:02.563Z,11.83
2022-12-31T03:01:02.730Z,11.85
2022-12-31T03:02:02.507Z,11.78
2022-12-31T03:03:02.388Z,11.80
2022-12-31T03:04:02.322Z,11.86
2022-12-31T03:05:02.268Z,11.80
2022-12-31T03:06:02.208Z,11.87
2022-12-31T03:07:02.160Z,11.82
2022-12-31T03:08:02.119Z,11.83
2022-12-31T03:09:02.067Z,11.86
2022-12-31T03:10:01.987Z,11.82
2022-12-31T03:11:01.945Z,11.80
2022-12-31T03:12:01.867Z,11.85
2022-12-31T03:13:01.831Z,11.89
2022-12-31T03:14:01.747Z,11.78
2022-12-31T03:15:01.697Z,11.78
2022-12-31T03:16:01.691Z,11.75
2022-12-31T03:17:01.580Z,11.77
2022-12-31T03:18:01.535Z,11.72
2022-12-31T03:19:01.460Z,11.85
2022-12-31T03:20:01.441Z,11.82
2022-12-31T03:21:01.355Z,11.87
2022-12-31T03:22:01.288Z,11.87
2022-12-31T03:23:01.229Z,11.83
2022-12-31T03:24:01.181Z,11.80
2022-12-31T03:25:01.133Z,11.85
2022-12-31T03:26:01.067Z,11.89
2022-12-31T03:27:01.005Z,11.75
2022-12-31T03:28:00.945Z,11.86
2022-12-31T03:29:00.892Z,11.83
2022-12-31T03:30:00.848Z,11.85
2022-12-31T03:31:00.846Z,11.75
2022-12-31T03:32:00.714Z,11.77
2022-12-31T03:33:00.655Z,11.85
2022-12-31T03:34:00.601Z,11.82
2022-12-31T03:35:00.553Z,11.82
2022-12-31T03:36:00.482Z,11.82
2022-12-31T03:37:00.431Z,11.85
2022-12-31T03:38:00.369Z,11.83
2022-12-31T03:39:00.317Z,11.87
2022-12-31T03:40:00.259Z,11.82
2022-12-31T03:41:00.265Z,11.85
2022-12-31T03:42:00.153Z,11.86
2022-12-31T03:43:00.115Z,11.87
2022-12-31T03:44:00.040Z,11.80
2022-12-31T03:44:59.971Z,11.87
2022-12-31T03:46:00.035Z,11.74
2022-12-31T03:46:59.855Z,11.85
2022-12-31T03:47:59.791Z,11.86
2022-12-31T03:48:59.739Z,11.89
2022-12-31T03:49:59.677Z,11.85
2022-12-31T03:50:59.624Z,11.86
2022-12-31T03:51:59.562Z,11.83
2022-12-31T03:52:59.508Z,11.85
2022-12-31T03:53:59.448Z,11.90
2022-12-31T03:54:59.411Z,11.87
2022-12-31T03:55:59.339Z,11.87
2022-12-31T03:57:00.404Z,11.86
2022-12-31T03:57:59.219Z,11.86
2022-12-31T03:58:59.160Z,11.89
2022-12-31T03:59:59.106Z,11.85
2022-12-31T04:00:59.254Z,11.86
2022-12-31T04:01:59.106Z,11.85
2022-12-31T04:02:59.040Z,11.85
2022-12-31T04:03:58.874Z,11.87
2022-12-31T04:04:58.819Z,11.96
2022-12-31T04:05:58.755Z,11.86
2022-12-31T04:06:58.701Z,11.93
2022-12-31T04:07:58.647Z,11.89
2022-12-31T04:08:58.589Z,11.87
2022-12-31T04:09:58.525Z,11.89
2022-12-31T04:10:58.478Z,11.99
2022-12-31T04:11:58.416Z,11.85
2022-12-31T04:12:58.361Z,11.89
2022-12-31T04:13:58.297Z,11.93
2022-12-31T04:14:58.247Z,11.86
2022-12-31T04:15:58.211Z,11.96
2022-12-31T04:16:58.130Z,11.94
2022-12-31T04:17:58.074Z,11.99
2022-12-31T04:18:58.014Z,11.86
2022-12-31T04:19:57.956Z,11.89
2022-12-31T04:20:57.899Z,11.86
2022-12-31T04:21:57.843Z,11.94
2022-12-31T04:22:57.787Z,11.86
2022-12-31T04:23:57.722Z,11.97
2022-12-31T04:24:57.667Z,11.83
2022-12-31T04:25:57.610Z,11.87
2022-12-31T04:27:02.074Z,11.86
2022-12-31T04:27:57.508Z,11.82
2022-12-31T04:28:57.461Z,11.90
2022-12-31T04:29:57.384Z,11.89
2022-12-31T04:30:58.071Z,11.83
2022-12-31T04:31:57.350Z,11.85
2022-12-31T04:32:58.086Z,11.85
2022-12-31T04:33:57.161Z,11.99
2022-12-31T04:34:57.107Z,11.85
2022-12-31T04:35:57.038Z,11.99
2022-12-31T04:36:56.982Z,11.85
2022-12-31T04:37:56.925Z,11.85
2022-12-31T04:38:56.863Z,11.87
2022-12-31T04:40:01.867Z,11.85
2022-12-31T04:40:56.754Z,11.89
2022-12-31T04:41:56.692Z,11.93
2022-12-31T04:42:56.655Z,11.96
2022-12-31T04:43:56.576Z,11.82
2022-12-31T04:44:56.550Z,11.94
2022-12-31T04:45:56.511Z,12.02
2022-12-31T04:46:56.411Z,11.96
2022-12-31T04:47:56.345Z,12.01
2022-12-31T04:48:56.288Z,12.02
2022-12-31T04:49:56.235Z,11.96
2022-12-31T04:50:56.207Z,11.93
2022-12-31T04:51:56.147Z,11.97
2022-12-31T04:52:56.065Z,11.97
2022-12-31T04:53:56.001Z,11.94
2022-12-31T04:54:55.955Z,11.94
2022-12-31T04:55:55.887Z,11.97
2022-12-31T04:56:55.833Z,11.97
2022-12-31T04:57:55.771Z,11.94
2022-12-31T04:58:55.715Z,11.96
2022-12-31T04:59:55.660Z,11.94
2022-12-31T05:00:55.699Z,11.93
2022-12-31T05:01:55.695Z,11.97
2022-12-31T05:02:55.542Z,11.94
2022-12-31T05:03:55.432Z,11.97
2022-12-31T05:04:55.369Z,11.96
2022-12-31T05:05:55.309Z,11.96
2022-12-31T05:06:55.262Z,12.01
2022-12-31T05:07:55.207Z,12.05
2022-12-31T05:08:55.138Z,11.96
2022-12-31T05:09:55.083Z,12.06
2022-12-31T05:10:55.031Z,11.94
2022-12-31T05:11:54.966Z,11.97
2022-12-31T05:12:54.914Z,11.89
2022-12-31T05:13:54.878Z,11.94
2022-12-31T05:14:54.809Z,12.02
2022-12-31T05:15:54.735Z,11.96
2022-12-31T05:16:54.770Z,11.99
2022-12-31T05:17:54.642Z,11.99
2022-12-31T05:18:54.566Z,11.93
2022-12-31T05:19:54.523Z,11.96
2022-12-31T05:20:54.460Z,11.94
2022-12-31T05:21:54.390Z,12.05
2022-12-31T05:22:54.333Z,12.05
2022-12-31T05:23:54.281Z,12.04
2022-12-31T05:24:54.223Z,11.97
2022-12-31T05:25:54.167Z,11.96
2022-12-31T05:26:54.110Z,12.01
2022-12-31T05:27:54.051Z,12.05
2022-12-31T05:28:53.997Z,12.02
2022-12-31T05:29:53.940Z,12.02
2022-12-31T05:30:53.960Z,12.04
2022-12-31T05:31:53.836Z,12.02
2022-12-31T05:32:53.786Z,12.01
2022-12-31T05:33:53.702Z,12.01
2022-12-31T05:34:53.650Z,12.05
2022-12-31T05:35:53.590Z,12.11
2022-12-31T05:36:53.533Z,12.09
2022-12-31T05:37:53.481Z,11.96
2022-12-31T05:38:53.423Z,11.94
2022-12-31T05:39:53.368Z,12.02
2022-12-31T05:40:53.301Z,12.06
2022-12-31T05:41:53.253Z,11.99
2022-12-31T05:42:53.188Z,12.02
2022-12-31T05:43:53.130Z,12.02
2022-12-31T05:44:53.073Z,12.08
2022-12-31T05:45:53.040Z,12.05
2022-12-31T05:46:52.961Z,12.04
2022-12-31T05:47:52.899Z,12.06
2022-12-31T05:48:52.876Z,12.04
2022-12-31T05:49:52.805Z,12.06
2022-12-31T05:50:52.734Z,12.12
2022-12-31T05:51:52.674Z,12.16
2022-12-31T05:52:52.619Z,12.15
2022-12-31T05:53:52.559Z,12.08
2022-12-31T05:54:52.509Z,12.15
2022-12-31T05:55:52.444Z,12.15
2022-12-31T05:56:52.396Z,12.09
2022-12-31T05:57:52.331Z,12.15
2022-12-31T05:58:52.274Z,12.19
2022-12-31T05:59:52.220Z,12.11
2022-12-31T06:00:52.183Z,12.13
2022-12-31T06:01:52.110Z,12.12
2022-12-31T06:02:52.060Z,12.16
2022-12-31T06:03:52.041Z,12.12
2022-12-31T06:04:51.942Z,12.11
2022-12-31T06:05:51.872Z,12.15
2022-12-31T06:06:51.832Z,12.12
2022-12-31T06:07:51.751Z,12.19
2022-12-31T06:08:51.710Z,12.09
2022-12-31T06:09:51.643Z,12.13
2022-12-31T06:10:51.608Z,12.15
2022-12-31T06:11:52.100Z,12.19
2022-12-31T06:12:51.488Z,12.09
2022-12-31T06:13:51.421Z,12.12
2022-12-31T06:14:51.351Z,12.11
2022-12-31T06:15:51.315Z,12.09
2022-12-31T06:16:51.247Z,12.12
2022-12-31T06:17:51.185Z,12.11
2022-12-31T06:18:51.125Z,12.19
2022-12-31T06:19:51.070Z,12.20
2022-12-31T06:20:51.023Z,12.19
2022-12-31T06:21:50.957Z,12.23
2022-12-31T06:22:50.898Z,12.19
2022-12-31T06:23:50.836Z,12.12
2022-12-31T06:24:50.779Z,12.13
2022-12-31T06:25:51.106Z,12.11
2022-12-31T06:26:50.671Z,12.24
2022-12-31T06:27:50.614Z,12.16
2022-12-31T06:28:50.573Z,12.20
2022-12-31T06:29:50.495Z,12.16
2022-12-31T06:30:50.489Z,12.16
2022-12-31T06:31:50.383Z,12.16
2022-12-31T06:32:50.323Z,12.23
2022-12-31T06:33:50.269Z,12.20
2022-12-31T06:34:50.214Z,12.21
2022-12-31T06:35:50.157Z,12.24
2022-12-31T06:36:50.103Z,12.23
2022-12-31T06:37:50.041Z,12.27
2022-12-31T06:38:49.979Z,12.19
2022-12-31T06:39:49.924Z,12.16
2022-12-31T06:40:49.871Z,12.27
2022-12-31T06:41:49.806Z,12.21
2022-12-31T06:42:53.398Z,12.24
2022-12-31T06:43:49.698Z,12.16
2022-12-31T06:44:49.635Z,12.16
2022-12-31T06:45:49.613Z,12.29
2022-12-31T06:46:49.551Z,12.26
2022-12-31T06:47:49.469Z,12.23
2022-12-31T06:48:49.413Z,12.30
2022-12-31T06:49:49.351Z,12.23
2022-12-31T06:50:49.291Z,12.24
2022-12-31T06:51:49.242Z,12.21
2022-12-31T06:52:49.236Z,12.23
2022-12-31T06:53:49.146Z,12.23
2022-12-31T06:54:49.619Z,12.26
2022-12-31T06:55:49.010Z,12.26
2022-12-31T06:56:48.952Z,12.24
2022-12-31T06:57:48.905Z,12.26
2022-12-31T06:58:48.849Z,12.27
2022-12-31T06:59:48.775Z,12.21
2022-12-31T07:00:48.720Z,12.26
2022-12-31T07:01:48.757Z,12.26
2022-12-31T07:02:48.741Z,12.24
2022-12-31T07:03:48.546Z,12.24
2022-12-31T07:04:51.129Z,12.23
2022-12-31T07:05:48.442Z,12.29
2022-12-31T07:06:48.379Z,12.21
2022-12-31T07:07:48.332Z,12.23
2022-12-31T07:08:48.265Z,12.26
2022-12-31T07:09:48.213Z,12.26
2022-12-31T07:10:48.156Z,12.24
2022-12-31T07:11:48.103Z,12.26
2022-12-31T07:12:48.033Z,12.26
2022-12-31T07:13:47.991Z,12.29
2022-12-31T07:14:47.924Z,12.29
2022-12-31T07:15:47.932Z,12.26
2022-12-31T07:16:47.807Z,12.26
2022-12-31T07:17:47.746Z,12.30
2022-12-31T07:18:47.698Z,12.30
2022-12-31T07:19:52.416Z,12.34
2022-12-31T07:20:47.577Z,12.30
2022-12-31T07:21:47.522Z,12.26
2022-12-31T07:22:47.459Z,12.23
2022-12-31T07:23:47.410Z,12.29
2022-12-31T07:24:47.375Z,12.29
2022-12-31T07:25:47.291Z,12.33
2022-12-31T07:26:52.628Z,12.30
2022-12-31T07:27:47.179Z,12.34
2022-12-31T07:28:47.139Z,12.33
2022-12-31T07:29:47.059Z,12.30
2022-12-31T07:30:47.011Z,12.31
2022-12-31T07:31:46.949Z,12.27
2022-12-31T07:32:46.897Z,12.31
2022-12-31T07:33:46.833Z,12.27
2022-12-31T07:34:46.782Z,12.29
2022-12-31T07:35:46.718Z,12.30
2022-12-31T07:36:46.667Z,12.30
2022-12-31T07:37:46.604Z,12.30
2022-12-31T07:38:46.547Z,12.31
2022-12-31T07:39:46.501Z,12.34
2022-12-31T07:40:46.445Z,12.30
2022-12-31T07:41:46.376Z,12.30
2022-12-31T07:42:46.315Z,12.34
2022-12-31T07:43:46.263Z,12.34
2022-12-31T07:44:46.206Z,12.29
2022-12-31T07:45:46.147Z,12.31
2022-12-31T07:46:46.126Z,12.37
2022-12-31T07:47:46.039Z,12.38
2022-12-31T07:48:45.980Z,12.34
2022-12-31T07:49:45.919Z,12.37
2022-12-31T07:50:45.861Z,12.39
2022-12-31T07:51:45.803Z,12.38
2022-12-31T07:52:45.762Z,12.38
2022-12-31T07:53:45.694Z,12.37
2022-12-31T07:54:45.637Z,12.34
2022-12-31T07:55:45.574Z,12.33
2022-12-31T07:56:45.547Z,12.30
2022-12-31T07:57:45.467Z,12.37
2022-12-31T07:58:45.404Z,12.39
2022-12-31T07:59:45.352Z,12.39
2022-12-31T08:00:45.321Z,12.37
2022-12-31T08:01:45.445Z,12.30
2022-12-31T08:02:45.235Z,12.41
2022-12-31T08:03:45.121Z,12.33
2022-12-31T08:04:45.063Z,12.41
2022-12-31T08:05:45.005Z,12.44
2022-12-31T08:06:44.942Z,12.51
2022-12-31T08:07:44.893Z,12.37
2022-12-31T08:08:44.833Z,12.38
2022-12-31T08:09:44.774Z,12.45
2022-12-31T08:10:44.722Z,12.29
2022-12-31T08:11:44.671Z,12.45
2022-12-31T08:12:44.618Z,12.44
2022-12-31T08:13:44.548Z,12.44
2022-12-31T08:14:44.487Z,12.44
2022-12-31T08:15:44.432Z,12.41
2022-12-31T08:16:44.447Z,12.48
2022-12-31T08:17:44.320Z,12.41
2022-12-31T08:18:44.264Z,12.45
2022-12-31T08:19:44.205Z,12.46
2022-12-31T08:20:44.149Z,12.42
2022-12-31T08:21:44.104Z,12.49
2022-12-31T08:22:44.029Z,12.48
2022-12-31T08:23:43.980Z,12.49
2022-12-31T08:24:43.916Z,12.44
2022-12-31T08:25:43.860Z,12.49
2022-12-31T08:26:48.139Z,12.45
2022-12-31T08:27:43.753Z,12.49
2022-12-31T08:28:43.715Z,12.45
2022-12-31T08:29:43.634Z,12.44
2022-12-31T08:30:43.579Z,12.42
2022-12-31T08:31:43.558Z,12.45
2022-12-31T08:32:43.465Z,12.41
2022-12-31T08:33:43.413Z,12.48
2022-12-31T08:34:43.345Z,12.52
2022-12-31T08:35:43.289Z,12.48
2022-12-31T08:36:43.236Z,12.48
2022-12-31T08:37:43.190Z,12.59
2022-12-31T08:38:43.119Z,12.60
2022-12-31T08:39:43.068Z,12.52
2022-12-31T08:40:43.009Z,12.51
2022-12-31T08:41:43.362Z,12.57
2022-12-31T08:42:42.897Z,12.57
2022-12-31T08:43:42.838Z,12.59
2022-12-31T08:44:42.795Z,12.56
2022-12-31T08:45:42.736Z,12.52
2022-12-31T08:46:42.668Z,12.56
2022-12-31T08:47:42.608Z,12.57
2022-12-31T08:48:53.306Z,12.57
2022-12-31T08:49:42.497Z,12.56
2022-12-31T08:50:42.443Z,12.57
2022-12-31T08:51:42.408Z,12.57
2022-12-31T08:52:42.322Z,12.56
2022-12-31T08:53:42.263Z,12.57
2022-12-31T08:54:42.215Z,12.54
2022-12-31T08:55:42.153Z,12.59
2022-12-31T08:56:46.022Z,12.60
2022-12-31T08:57:42.043Z,12.62
2022-12-31T08:58:41.990Z,12.57
2022-12-31T08:59:41.921Z,12.62
2022-12-31T09:00:42.011Z,12.59
2022-12-31T09:01:41.927Z,12.62
2022-12-31T09:02:47.713Z,12.64
2022-12-31T09:03:41.692Z,12.66
2022-12-31T09:04:41.641Z,12.57
2022-12-31T09:05:41.575Z,12.59
2022-12-31T09:06:41.520Z,12.67
2022-12-31T09:07:41.489Z,12.57
2022-12-31T09:08:41.405Z,12.69
2022-12-31T09:09:41.351Z,12.59
2022-12-31T09:10:41.321Z,12.69
2022-12-31T09:11:41.242Z,12.66
2022-12-31T09:12:41.178Z,12.59
2022-12-31T09:13:41.132Z,12.63
2022-12-31T09:14:41.065Z,12.57
2022-12-31T09:15:41.017Z,12.69
2022-12-31T09:16:41.021Z,12.56
2022-12-31T09:17:40.896Z,12.69
2022-12-31T09:18:40.841Z,12.67
2022-12-31T09:19:40.788Z,12.62
2022-12-31T09:20:43.245Z,12.60
2022-12-31T09:21:40.672Z,12.71
2022-12-31T09:22:40.619Z,12.62
2022-12-31T09:23:40.555Z,12.69
2022-12-31T09:24:40.495Z,12.62
2022-12-31T09:25:40.438Z,12.63
2022-12-31T09:26:40.384Z,12.71
2022-12-31T09:27:40.323Z,12.62
2022-12-31T09:28:40.271Z,12.69
2022-12-31T09:29:40.215Z,12.67
2022-12-31T09:30:40.157Z,12.66
2022-12-31T09:31:40.166Z,12.70
2022-12-31T09:32:40.072Z,12.69
2022-12-31T09:33:39.987Z,12.75
2022-12-31T09:34:39.931Z,12.69
2022-12-31T09:35:39.875Z,12.70
2022-12-31T09:36:39.813Z,12.75
2022-12-31T09:37:39.755Z,12.77
2022-12-31T09:38:39.698Z,12.74
2022-12-31T09:39:39.640Z,12.77
2022-12-31T09:40:39.590Z,12.71
2022-12-31T09:41:39.525Z,12.77
2022-12-31T09:42:39.476Z,12.71
2022-12-31T09:43:39.414Z,12.77
2022-12-31T09:44:39.363Z,12.71
2022-12-31T09:45:39.440Z,12.74
2022-12-31T09:46:39.246Z,12.71
2022-12-31T09:47:39.194Z,12.85
2022-12-31T09:48:39.140Z,12.71
2022-12-31T09:49:39.073Z,12.70
2022-12-31T09:50:39.026Z,12.75
2022-12-31T09:51:38.960Z,12.78
2022-12-31T09:52:38.910Z,12.81
2022-12-31T09:53:38.845Z,12.74
2022-12-31T09:54:38.796Z,12.77
2022-12-31T09:55:38.732Z,12.79
2022-12-31T09:56:38.677Z,12.74
2022-12-31T09:57:38.623Z,12.79
2022-12-31T09:58:38.559Z,12.74
2022-12-31T09:59:38.508Z,12.78
2022-12-31T10:00:38.447Z,12.77
2022-12-31T10:01:38.470Z,12.79
2022-12-31T10:02:38.507Z,12.82
2022-12-31T10:03:38.289Z,12.84
2022-12-31T10:04:38.230Z,12.82
2022-12-31T10:05:38.165Z,12.82
2022-12-31T10:06:38.118Z,12.88
2022-12-31T10:07:38.053Z,12.84
2022-12-31T10:08:37.999Z,12.85
2022-12-31T10:09:37.942Z,12.84
2022-12-31T10:10:37.885Z,12.81
2022-12-31T10:11:37.823Z,12.88
2022-12-31T10:12:37.771Z,12.96
2022-12-31T10:13:37.704Z,12.97
2022-12-31T10:14:41.058Z,12.99
2022-12-31T10:15:37.594Z,12.96
2022-12-31T10:16:37.571Z,13.07
2022-12-31T10:17:37.481Z,13.03
2022-12-31T10:18:37.423Z,13.04
2022-12-31T10:19:37.380Z,13.02
2022-12-31T10:20:43.330Z,13.12
2022-12-31T10:21:37.257Z,13.11
2022-12-31T10:22:37.209Z,13.07
2022-12-31T10:23:37.139Z,13.12
2022-12-31T10:24:37.089Z,13.12
2022-12-31T10:25:38.476Z,13.18
2022-12-31T10:26:36.981Z,13.15
2022-12-31T10:27:36.915Z,13.20
2022-12-31T10:28:36.868Z,13.17
2022-12-31T10:29:36.802Z,13.18
2022-12-31T10:30:36.825Z,13.21
2022-12-31T10:31:36.686Z,13.14
2022-12-31T10:32:36.642Z,13.18
2022-12-31T10:33:36.576Z,13.18
2022-12-31T10:34:36.523Z,13.20
2022-12-31T10:35:36.455Z,13.22
2022-12-31T10:36:36.410Z,13.18
2022-12-31T10:37:36.345Z,13.25
2022-12-31T10:38:36.294Z,13.30
2022-12-31T10:39:36.230Z,13.30
2022-12-31T10:40:36.182Z,13.32
2022-12-31T10:41:36.120Z,13.38
2022-12-31T10:42:36.063Z,13.24
2022-12-31T10:43:36.011Z,13.32
2022-12-31T10:44:35.956Z,13.29
2022-12-31T10:45:35.891Z,13.36
2022-12-31T10:46:35.873Z,13.29
2022-12-31T10:47:35.783Z,13.32
2022-12-31T10:48:35.724Z,13.37
2022-12-31T10:49:35.675Z,13.33
2022-12-31T10:50:35.616Z,13.46
2022-12-31T10:51:35.556Z,13.44
2022-12-31T10:52:41.432Z,13.33
2022-12-31T10:53:35.449Z,13.46
2022-12-31T10:54:35.386Z,13.49
2022-12-31T10:55:35.328Z,13.46
2022-12-31T10:56:35.271Z,13.47
2022-12-31T10:57:35.217Z,13.47
2022-12-31T10:58:35.159Z,13.47
2022-12-31T10:59:35.109Z,13.49
2022-12-31T11:00:35.047Z,13.47
2022-12-31T11:01:35.082Z,13.47
2022-12-31T11:02:35.172Z,13.52
2022-12-31T11:03:34.981Z,13.51
2022-12-31T11:04:34.827Z,13.44
2022-12-31T11:05:34.762Z,13.49
2022-12-31T11:06:34.705Z,13.46
2022-12-31T11:07:34.648Z,13.49
2022-12-31T11:08:34.605Z,13.49
2022-12-31T11:09:34.975Z,13.51
2022-12-31T11:10:34.486Z,13.51
2022-12-31T11:11:34.430Z,13.54
2022-12-31T11:12:34.371Z,13.58
2022-12-31T11:13:34.321Z,13.55
2022-12-31T11:14:34.267Z,13.55
2022-12-31T11:15:34.224Z,13.63
2022-12-31T11:16:34.152Z,13.67
2022-12-31T11:17:34.088Z,13.70
2022-12-31T11:18:34.025Z,13.59
2022-12-31T11:19:33.973Z,13.71
2022-12-31T11:20:33.916Z,13.77
2022-12-31T11:21:37.879Z,13.77
2022-12-31T11:22:33.807Z,13.71
2022-12-31T11:23:33.747Z,13.79
2022-12-31T11:24:33.700Z,13.81
2022-12-31T11:25:33.628Z,13.81
2022-12-31T11:26:33.583Z,13.84
2022-12-31T11:27:33.539Z,13.84
2022-12-31T11:28:33.466Z,13.77
2022-12-31T11:29:33.409Z,13.83
2022-12-31T11:30:33.351Z,13.84
2022-12-31T11:31:33.328Z,13.84
2022-12-31T11:32:33.242Z,13.84
2022-12-31T11:33:33.177Z,13.84
2022-12-31T11:34:33.126Z,13.81
2022-12-31T11:35:33.074Z,13.83
2022-12-31T11:36:33.010Z,13.80
2022-12-31T11:37:32.958Z,13.84
2022-12-31T11:38:32.903Z,13.89
2022-12-31T11:39:32.903Z,13.95
2022-12-31T11:40:32.795Z,13.98
2022-12-31T11:41:32.729Z,13.96
2022-12-31T11:42:32.685Z,13.99
2022-12-31T11:43:32.620Z,14.01
2022-12-31T11:44:32.566Z,13.98
2022-12-31T11:45:32.510Z,13.99
2022-12-31T11:46:32.468Z,13.95
2022-12-31T11:47:32.397Z,13.88
2022-12-31T11:48:32.902Z,13.91
2022-12-31T11:49:32.287Z,13.81
2022-12-31T11:50:32.242Z,13.77
2022-12-31T11:51:32.176Z,13.91
2022-12-31T11:52:32.106Z,13.88
2022-12-31T11:53:32.052Z,13.83
2022-12-31T11:54:31.995Z,13.79
2022-12-31T11:55:31.959Z,13.84
2022-12-31T11:56:31.890Z,13.69
2022-12-31T11:57:31.833Z,13.80
2022-12-31T11:58:31.775Z,13.74
2022-12-31T11:59:31.711Z,13.74
2022-12-31T12:00:31.664Z,13.76
2022-12-31T12:01:31.628Z,13.62
2022-12-31T12:02:31.592Z,13.65
2022-12-31T12:03:31.567Z,13.69
2022-12-31T12:04:31.446Z,13.73
2022-12-31T12:05:31.377Z,13.76
2022-12-31T12:06:31.326Z,13.61
2022-12-31T12:07:31.287Z,13.63
2022-12-31T12:08:31.210Z,13.67
2022-12-31T12:09:31.168Z,13.65
2022-12-31T12:10:36.099Z,13.69
2022-12-31T12:11:31.042Z,13.69
2022-12-31T12:12:30.991Z,13.70
2022-12-31T12:13:30.922Z,13.67
2022-12-31T12:14:30.869Z,13.62
2022-12-31T12:15:30.816Z,13.71
2022-12-31T12:16:30.780Z,13.62
2022-12-31T12:17:30.695Z,13.63
2022-12-31T12:18:30.647Z,13.65
2022-12-31T12:19:30.591Z,13.73
2022-12-31T12:20:30.532Z,13.74
2022-12-31T12:21:30.480Z,13.59
2022-12-31T12:22:30.422Z,13.67
2022-12-31T12:23:30.374Z,13.61
2022-12-31T12:24:30.310Z,13.77
2022-12-31T12:25:30.250Z,13.63
2022-12-31T12:26:30.200Z,13.74
2022-12-31T12:27:30.138Z,13.67
2022-12-31T12:28:30.088Z,13.61
2022-12-31T12:29:30.024Z,13.73
2022-12-31T12:30:29.968Z,13.65
2022-12-31T12:31:29.936Z,13.71
2022-12-31T12:32:29.853Z,13.69
2022-12-31T12:33:29.800Z,13.70
2022-12-31T12:34:29.743Z,13.77
2022-12-31T12:35:29.683Z,13.65
2022-12-31T12:36:29.632Z,13.76
2022-12-31T12:37:29.579Z,13.69
2022-12-31T12:38:29.523Z,13.71
2022-12-31T12:39:29.468Z,13.70
2022-12-31T12:40:33.872Z,13.71
2022-12-31T12:41:29.350Z,13.73
2022-12-31T12:42:29.304Z,13.71
2022-12-31T12:43:29.235Z,13.70
2022-12-31T12:44:29.183Z,13.70
2022-12-31T12:45:29.133Z,13.69
2022-12-31T12:46:29.081Z,13.76
2022-12-31T12:47:29.018Z,13.73
2022-12-31T12:48:28.956Z,13.71
2022-12-31T12:49:28.905Z,13.73
2022-12-31T12:50:28.840Z,13.76
2022-12-31T12:51:28.787Z,13.77